logo
Rechercher aéroport 
image banner adimage banner adimage banner ad
image banner ad

CSP9 - Ste-Anne-Du-Lac

Situé à , Canada

ICAO - CSP9, IATA -

Données fournies par Airmate  

Information générale

Coordonnées: N46°52'55" W75°19'18"
Élévation : 817 feet MSL.
Variation magnétique : -15° East
Voir autres Aéroports à Quebec

Données opérationnelles

Special qualification required
Heure actuelle UTC:
Heure actuelle locale:
Météo à : - ( 0 km )
METAR: ZMUB 270400Z VRB02MPS 9999 FEW033 20/02 Q1013 NOSIG RMK QFE652.7 30 MOP
Voir NOTAMs / SUP AIP / TFR affectant cet aéroport [VIEW]
Fréquences de communication: [VIEW]

Pistes:

Identifiant RWYQFULongueur (ft)Largeur (ft)SurfaceLDA (ft)
W00WATER

Coordonnées de l'aéroport

Adresse: Canada

Autres services d'aviation

Écoles de pilotage

Focus Sport Aviation

Focus Sport Aviation

Vue satellite de CSP9